WetterOnline ( https://www.wetteronline.de )

Wetter aktuell Bad Belzig

Aktuelles Wetter: Wiesenburg (188m)

6-stündlich | Neueste Meldungen
Ortszeit Temperatur Wetter
Fr, 09.12. 19:00 -2.3° C Nebel
Fr, 09.12. 13:00 -0.2° C Nebel
Fr, 09.12. 7:00 -0.8° C Nebel
Fr, 09.12. 1:00 -0.9° C Nebel
Do, 08.12. 19:00 1.1° C bedeckt
Do, 08.12. 13:00 2.4° C Sprühregen
Do, 08.12. 7:00 1.1° C bedeckt
Do, 08.12. 1:00 0.2° C leichter Schneefall
Ortszeit Temperatur Wetter
Fr, 09.12. 23:30 -2.5° C bedeckt
Fr, 09.12. 23:20 -2.5° C Dunst
Fr, 09.12. 23:10 -2.5° C Dunst
Fr, 09.12. 23:00 -2.5° C bedeckt
Fr, 09.12. 22:50 -2.5° C Dunst
Fr, 09.12. 22:40 -2.5° C Dunst
Fr, 09.12. 22:30 -2.5° C bedeckt
Fr, 09.12. 22:00 -2.4° C Nebel
Fr, 09.12. 21:30 -2.4° C Nebel
Fr, 09.12. 21:00 -2.5° C Nebel
Fr, 09.12. 20:30 -2.2° C Nebel
Ortszeit Relative Feuchte Sichtweite
Fr, 09.12. 19:00 97% 1.3 km
Fr, 09.12. 13:00 94% 16 km
Fr, 09.12. 7:00 98% 0.2 km
Fr, 09.12. 1:00 98% 4.3 km
Do, 08.12. 19:00 94% 12 km
Do, 08.12. 13:00 92% 11 km
Do, 08.12. 7:00 94% 10 km
Do, 08.12. 1:00 97% 4.7 km
Ortszeit Relative Feuchte Sichtweite
Fr, 09.12. 23:30 96% 3.0 km
Fr, 09.12. 23:20 96% -
Fr, 09.12. 23:10 96% -
Fr, 09.12. 23:00 96% 3.6 km
Fr, 09.12. 22:50 96% -
Fr, 09.12. 22:40 96% -
Fr, 09.12. 22:30 97% 3.7 km
Fr, 09.12. 22:00 97% 1.5 km
Fr, 09.12. 21:30 97% 0.6 km
Fr, 09.12. 21:00 96% 1.1 km
Fr, 09.12. 20:30 97% 2.6 km
Ortszeit Niederschlagsmenge Niederschlagsart
Fr, 09.12. 19:00 0.0 l/m2 in 12 Std. -
Fr, 09.12. 13:00 0.0 l/m2 in 6 Std. -
Fr, 09.12. 7:00 0.0 l/m2 in 12 Std. -
Fr, 09.12. 1:00 0.0 l/m2 in 6 Std. -
Do, 08.12. 19:00 0.7 l/m2 in 12 Std. Regen
Do, 08.12. 13:00 0.3 l/m2 in 6 Std. Regen
Do, 08.12. 7:00 0.5 l/m2 in 12 Std. Schnee, Regen
Do, 08.12. 1:00 0.1 l/m2 in 6 Std. Schnee, Sprühregen
Ortszeit Niederschlagsmenge Niederschlagsart
Fr, 09.12. 23:30 0.0 l/m2 in 1 Std. -
Fr, 09.12. 23:20 keine Meldung -
Fr, 09.12. 23:10 keine Meldung -
Fr, 09.12. 23:00 0.0 l/m2 in 1 Std. -
Fr, 09.12. 22:50 keine Meldung -
Fr, 09.12. 22:40 keine Meldung -
Fr, 09.12. 22:30 0.0 l/m2 in 1 Std. -
Fr, 09.12. 22:00 0.0 l/m2 in 1 Std. -
Fr, 09.12. 21:30 0.0 l/m2 in 1 Std. -
Fr, 09.12. 21:00 0.0 l/m2 in 1 Std. -
Fr, 09.12. 20:30 0.0 l/m2 in 1 Std. -
Ortszeit Stärke Spitze Richtung
km/h Bft. km/h Grad Sektor
Fr, 09.12. 19:00 11 2 20 70° O
Fr, 09.12. 13:00 7 2 11 10° N
Fr, 09.12. 7:00 2 1 15 200° S
Fr, 09.12. 1:00 7 2 14 210° SW
Do, 08.12. 19:00 11 2 25 280° W
Do, 08.12. 13:00 17 3 30 220° SW
Do, 08.12. 7:00 11 2 22 220° SW
Do, 08.12. 1:00 11 2 25 240° SW
Ortszeit Stärke Spitze Richtung
km/h Bft. km/h Grad Sektor
Fr, 09.12. 23:30 14 3 18 90° O
Fr, 09.12. 23:20 14 3 - 90° O
Fr, 09.12. 23:10 14 3 - 70° O
Fr, 09.12. 23:00 13 3 22 70° O
Fr, 09.12. 22:50 13 3 - 70° O
Fr, 09.12. 22:40 13 3 - 60° NO
Fr, 09.12. 22:30 13 3 22 80° O
Fr, 09.12. 22:00 13 3 19 80° O
Fr, 09.12. 21:30 13 3 19 70° O
Fr, 09.12. 21:00 13 3 19 60° NO
Fr, 09.12. 20:30 13 3 17 80° O
Ortszeit Untergrenze Bedeckung Gattung
total tief tief mittel hoch
Fr, 09.12. 19:00 30 m 8/8 8/8 - - -
Fr, 09.12. 13:00 30 m 4/8 4/8 - - -
Fr, 09.12. 7:00 <30 m 8/8 0/8 - - -
Fr, 09.12. 1:00 <30 m 8/8 0/8 - - -
Do, 08.12. 19:00 330 m 8/8 8/8 - - -
Do, 08.12. 13:00 300 m 8/8 8/8 - - -
Do, 08.12. 7:00 600 m 8/8 8/8 - - -
Do, 08.12. 1:00 60 m 8/8 8/8 - - -
Ortszeit Bedeckungsgrad in Achtel und Wolkenuntergrenze
Fr, 09.12. 23:30 8(60m)
Fr, 09.12. 23:20 8(60m)
Fr, 09.12. 23:10 8
Fr, 09.12. 23:00 8(60m)
Fr, 09.12. 22:50 8(60m)
Fr, 09.12. 22:40 8
Fr, 09.12. 22:30 8(30m)
Fr, 09.12. 22:00 8(30m)
Fr, 09.12. 21:30 8(30m)
Fr, 09.12. 21:00 8(30m)
Fr, 09.12. 20:30 8(30m)
Ortszeit Luftdruck NN (hPa) Tendenz (hPa in 3 Std.)
Fr, 09.12. 19:00 1008 + 0,2
Fr, 09.12. 13:00 1008 - 1,0
Fr, 09.12. 7:00 1008 - 0,3
Fr, 09.12. 1:00 1008 + 0,2
Do, 08.12. 19:00 1007 + 0,8
Do, 08.12. 13:00 1006 - 0,8
Do, 08.12. 7:00 1007 - 1,0
Do, 08.12. 1:00 1010 - 0,8
Ortszeit Luftdruck NN (hPa) Tendenz (hPa in 3 Std.)
Fr, 09.12. 23:30 1009 + 0,4
Fr, 09.12. 23:20 1009 keine Meldung
Fr, 09.12. 23:10 1009 keine Meldung
Fr, 09.12. 23:00 1009 + 0,5
Fr, 09.12. 22:50 1009 keine Meldung
Fr, 09.12. 22:40 1009 keine Meldung
Fr, 09.12. 22:30 1009 + 0,6
Fr, 09.12. 22:00 1009 + 0,7
Fr, 09.12. 21:30 1008 + 0,5
Fr, 09.12. 21:00 1008 + 0,4
Fr, 09.12. 20:30 1008 + 0,4
Ortszeit Schneehöhe (cm)
Fr, 09.12. 19:00 0
Fr, 09.12. 13:00 0
Fr, 09.12. 7:00 0
Fr, 09.12. 1:00 0
Do, 08.12. 19:00 0
Do, 08.12. 13:00 0
Do, 08.12. 7:00 0
Do, 08.12. 1:00 0
Ortszeit Schneehöhe (cm)
Fr, 09.12. 23:30 0
Fr, 09.12. 23:20 0
Fr, 09.12. 23:10 0
Fr, 09.12. 23:00 0
Fr, 09.12. 22:50 0
Fr, 09.12. 22:40 0
Fr, 09.12. 22:30 0
Fr, 09.12. 22:00 0
Fr, 09.12. 21:30 0
Fr, 09.12. 21:00 0
Fr, 09.12. 20:30 0
Link zu dieser Seite / Seite empfehlen

Das Wetter in ...